createdAt,value
2023-05-21T00:00:40.452Z,16.10
2023-05-21T00:03:30.382Z,16.00
2023-05-21T00:05:58.481Z,16.00
2023-05-21T00:08:25.820Z,15.90
2023-05-21T00:10:53.366Z,15.90
2023-05-21T00:13:20.723Z,15.90
2023-05-21T00:15:48.471Z,15.90
2023-05-21T00:18:16.363Z,15.80
2023-05-21T00:20:44.113Z,15.70
2023-05-21T00:23:11.527Z,15.70
2023-05-21T00:25:39.152Z,15.60
2023-05-21T00:28:06.515Z,15.60
2023-05-21T00:30:34.151Z,15.60
2023-05-21T00:33:03.192Z,15.50
2023-05-21T00:35:30.966Z,15.50
2023-05-21T00:37:59.212Z,15.40
2023-05-21T00:40:26.841Z,15.40
2023-05-21T00:42:57.281Z,15.40
2023-05-21T00:45:25.705Z,15.40
2023-05-21T00:47:56.067Z,15.40
2023-05-21T00:50:24.283Z,15.40
2023-05-21T00:52:51.810Z,15.40
2023-05-21T00:55:19.596Z,15.30
2023-05-21T00:57:49.553Z,15.30
2023-05-21T01:00:17.518Z,15.30
2023-05-21T01:02:45.611Z,15.20
2023-05-21T01:05:15.453Z,15.20
2023-05-21T01:07:43.437Z,15.20
2023-05-21T01:10:11.905Z,15.10
2023-05-21T01:12:41.880Z,15.10
2023-05-21T01:15:10.874Z,15.10
2023-05-21T01:17:39.849Z,15.00
2023-05-21T01:20:11.480Z,15.00
2023-05-21T01:22:46.384Z,15.00
2023-05-21T01:25:15.121Z,14.90
2023-05-21T01:27:42.426Z,14.90
2023-05-21T01:30:11.406Z,14.90
2023-05-21T01:33:04.066Z,14.90
2023-05-21T01:35:41.911Z,14.80
2023-05-21T01:38:25.111Z,14.80
2023-05-21T01:41:00.356Z,14.80
2023-05-21T01:43:31.567Z,14.80
2023-05-21T01:46:01.043Z,14.80
2023-05-21T01:48:29.976Z,14.80
2023-05-21T01:51:04.271Z,14.80
2023-05-21T01:53:31.929Z,14.80
2023-05-21T01:55:59.629Z,14.70
2023-05-21T01:58:27.125Z,14.70
2023-05-21T02:00:54.727Z,14.70
2023-05-21T02:03:23.381Z,14.70
2023-05-21T02:05:52.209Z,14.70
2023-05-21T02:08:20.202Z,14.70
2023-05-21T02:10:47.882Z,14.70
2023-05-21T02:13:15.880Z,14.60
2023-05-21T02:15:44.972Z,14.60
2023-05-21T02:18:16.676Z,14.50
2023-05-21T02:20:45.329Z,14.50
2023-05-21T02:23:12.853Z,14.50
2023-05-21T02:25:40.512Z,14.50
2023-05-21T02:28:07.943Z,14.50
2023-05-21T02:30:36.070Z,14.60
2023-05-21T02:33:03.594Z,14.60
2023-05-21T02:35:32.278Z,14.60
2023-05-21T02:38:03.031Z,14.50
2023-05-21T02:40:30.957Z,14.60
2023-05-21T02:42:58.277Z,14.50
2023-05-21T02:45:25.921Z,14.50
2023-05-21T02:47:53.520Z,14.50
2023-05-21T02:50:22.820Z,14.40
2023-05-21T02:53:00.106Z,14.50
2023-05-21T02:55:28.461Z,14.50
2023-05-21T02:57:56.144Z,14.50
2023-05-21T03:00:23.677Z,14.50
2023-05-21T03:02:51.161Z,14.50
2023-05-21T03:05:18.955Z,14.50
2023-05-21T03:07:46.384Z,14.50
2023-05-21T03:10:14.342Z,14.50
2023-05-21T03:12:41.609Z,14.50
2023-05-21T03:15:09.891Z,14.50
2023-05-21T03:17:37.261Z,14.60
2023-05-21T03:20:05.575Z,14.60
2023-05-21T03:22:33.156Z,14.60
2023-05-21T03:25:01.907Z,14.60
2023-05-21T03:27:29.519Z,14.70
2023-05-21T03:29:59.400Z,14.70
2023-05-21T03:32:27.742Z,14.80
2023-05-21T03:34:55.800Z,14.80
2023-05-21T03:37:23.025Z,14.90
2023-05-21T03:39:50.875Z,14.90
2023-05-21T03:42:18.570Z,14.90
2023-05-21T03:44:50.625Z,14.90
2023-05-21T03:47:36.243Z,14.90
2023-05-21T03:50:06.919Z,15.00
2023-05-21T03:52:34.286Z,15.00
2023-05-21T03:55:02.679Z,15.10
2023-05-21T03:57:30.376Z,15.10
2023-05-21T03:59:59.117Z,15.10
2023-05-21T04:02:27.623Z,15.10
2023-05-21T04:04:56.026Z,15.20
2023-05-21T04:07:24.829Z,15.20
2023-05-21T04:09:52.791Z,15.30
2023-05-21T04:12:22.978Z,15.30
2023-05-21T04:14:51.654Z,15.40
2023-05-21T04:17:21.190Z,15.40
2023-05-21T04:19:49.286Z,15.40
2023-05-21T04:22:16.696Z,15.50
2023-05-21T04:24:46.556Z,15.50
2023-05-21T04:27:19.726Z,15.60
2023-05-21T04:29:50.599Z,15.60
2023-05-21T04:32:18.232Z,15.70
2023-05-21T04:34:45.923Z,15.80
2023-05-21T04:37:14.002Z,15.90
2023-05-21T04:39:41.633Z,15.90
2023-05-21T04:42:11.033Z,16.00
2023-05-21T04:44:40.426Z,16.10
2023-05-21T04:47:07.993Z,16.20
2023-05-21T04:49:37.031Z,16.20
2023-05-21T04:52:04.547Z,16.30
2023-05-21T04:54:32.239Z,16.40
2023-05-21T04:56:59.638Z,16.50
2023-05-21T04:59:27.244Z,16.50
2023-05-21T05:01:54.666Z,16.60
2023-05-21T05:04:23.062Z,16.60
2023-05-21T05:06:50.595Z,16.70
2023-05-21T05:09:18.925Z,16.70
2023-05-21T05:11:46.214Z,16.80
2023-05-21T05:14:14.547Z,16.90
2023-05-21T05:16:43.612Z,17.00
2023-05-21T05:19:11.510Z,17.10
2023-05-21T05:21:38.824Z,17.10
2023-05-21T05:24:06.585Z,17.20
2023-05-21T05:26:34.205Z,17.20
2023-05-21T05:29:01.697Z,17.30
2023-05-21T05:31:29.760Z,17.30
2023-05-21T05:33:57.596Z,17.40
2023-05-21T05:36:26.432Z,17.50
2023-05-21T05:38:53.744Z,17.50
2023-05-21T05:41:22.795Z,17.60
2023-05-21T05:43:50.912Z,17.60
2023-05-21T05:46:19.470Z,17.70
2023-05-21T05:48:46.830Z,17.80
2023-05-21T05:51:17.201Z,17.80
2023-05-21T05:53:44.636Z,17.90
2023-05-21T05:56:12.335Z,17.90
2023-05-21T05:58:39.846Z,18.00
2023-05-21T06:01:10.675Z,18.10
2023-05-21T06:03:38.298Z,18.20
2023-05-21T06:06:15.281Z,18.20
2023-05-21T06:08:43.901Z,18.30
2023-05-21T06:11:13.255Z,18.40
2023-05-21T06:13:41.236Z,18.50
2023-05-21T06:16:11.465Z,18.50
2023-05-21T06:18:39.185Z,18.60
2023-05-21T06:21:06.903Z,18.70
2023-05-21T06:23:37.718Z,18.70
2023-05-21T06:26:06.402Z,18.80
2023-05-21T06:28:33.987Z,18.90
2023-05-21T06:31:02.017Z,19.00
2023-05-21T06:33:30.846Z,19.00
2023-05-21T06:35:58.428Z,19.10
2023-05-21T06:38:26.137Z,19.20
2023-05-21T06:40:53.716Z,19.20
2023-05-21T06:43:39.540Z,19.40
2023-05-21T06:46:26.010Z,19.50
2023-05-21T06:48:53.547Z,19.60
2023-05-21T06:51:21.430Z,19.70
2023-05-21T06:53:49.067Z,19.80
2023-05-21T06:56:18.622Z,19.80
2023-05-21T06:58:46.779Z,19.90
2023-05-21T07:01:14.539Z,20.00
2023-05-21T07:03:42.389Z,20.10
2023-05-21T07:06:10.089Z,20.20
2023-05-21T07:08:37.521Z,20.20
2023-05-21T07:11:05.100Z,20.20
2023-05-21T07:13:32.499Z,20.40
2023-05-21T07:16:00.063Z,20.40
2023-05-21T07:18:28.097Z,20.50
2023-05-21T07:20:57.086Z,20.50
2023-05-21T07:23:25.103Z,20.60
2023-05-21T07:25:52.831Z,20.70
2023-05-21T07:28:20.634Z,20.60
2023-05-21T07:30:48.258Z,20.70
2023-05-21T07:33:20.798Z,20.70
2023-05-21T07:35:49.098Z,20.60
2023-05-21T07:38:17.599Z,20.70
2023-05-21T07:40:45.421Z,20.80
2023-05-21T07:43:13.600Z,20.90
2023-05-21T07:45:42.143Z,20.90
2023-05-21T07:48:09.956Z,21.00
2023-05-21T07:50:49.368Z,21.00
2023-05-21T08:38:31.400Z,21.10
2023-05-21T08:41:24.998Z,22.50
2023-05-21T08:43:57.667Z,22.70
2023-05-21T08:46:32.466Z,22.60
2023-05-21T08:49:02.864Z,22.40
2023-05-21T08:51:31.633Z,22.50
2023-05-21T08:54:01.758Z,22.50
2023-05-21T08:56:32.250Z,22.50
2023-05-21T08:58:59.863Z,22.70
2023-05-21T09:01:33.558Z,22.70
2023-05-21T09:04:21.280Z,22.80
2023-05-21T09:06:53.276Z,22.70
2023-05-21T09:09:40.079Z,22.90
2023-05-21T09:12:08.533Z,23.00
2023-05-21T09:14:37.393Z,23.00
2023-05-21T09:17:18.092Z,23.00
2023-05-21T09:20:14.710Z,22.90
2023-05-21T09:22:49.595Z,22.70
2023-05-21T09:25:22.320Z,22.80
2023-05-21T09:27:51.307Z,22.70
2023-05-21T09:30:23.630Z,22.80
2023-05-21T09:32:58.686Z,22.80
2023-05-21T09:35:27.359Z,22.80
2023-05-21T09:37:57.571Z,23.10
2023-05-21T09:40:25.452Z,23.20
2023-05-21T09:42:54.776Z,23.20
2023-05-21T09:45:23.017Z,23.20
2023-05-21T09:47:53.864Z,23.40
2023-05-21T09:50:23.055Z,23.40
2023-05-21T09:52:53.087Z,23.40
2023-05-21T09:55:23.727Z,23.40
2023-05-21T09:57:52.310Z,23.20
2023-05-21T10:00:27.425Z,23.20
2023-05-21T10:02:57.032Z,23.30
2023-05-21T10:05:31.232Z,23.20
2023-05-21T10:08:03.290Z,23.30
2023-05-21T10:10:32.477Z,23.30
2023-05-21T10:13:08.718Z,23.30
2023-05-21T10:15:53.145Z,23.30
2023-05-21T10:18:22.272Z,23.30
2023-05-21T10:20:50.298Z,23.20
2023-05-21T10:23:19.172Z,23.30
2023-05-21T10:25:47.331Z,23.30
2023-05-21T10:28:18.282Z,23.30
2023-05-21T10:30:49.168Z,23.30
2023-05-21T10:33:17.208Z,23.30
2023-05-21T10:35:47.568Z,23.10
2023-05-21T10:38:19.773Z,23.20
2023-05-21T10:40:49.206Z,23.40
2023-05-21T10:43:32.628Z,23.50
2023-05-21T10:46:25.275Z,23.40
2023-05-21T10:49:18.337Z,23.50
2023-05-21T10:52:11.560Z,23.50
2023-05-21T10:54:52.998Z,23.70
2023-05-21T10:57:40.163Z,23.80
2023-05-21T11:00:09.593Z,23.80
2023-05-21T11:02:37.481Z,23.90
2023-05-21T11:05:06.046Z,23.90
2023-05-21T11:07:56.760Z,23.60
2023-05-21T11:10:39.569Z,23.10
2023-05-21T11:13:14.046Z,23.30
2023-05-21T11:15:59.872Z,23.50
2023-05-21T11:18:36.315Z,23.60
2023-05-21T11:21:16.235Z,23.90
2023-05-21T11:23:58.067Z,24.10
2023-05-21T11:26:30.628Z,24.00
2023-05-21T11:29:03.572Z,24.00
2023-05-21T11:31:39.126Z,24.30
2023-05-21T11:34:18.789Z,24.40
2023-05-21T11:36:48.421Z,24.30
2023-05-21T11:39:23.939Z,24.10
2023-05-21T11:42:03.797Z,24.10
2023-05-21T11:44:50.066Z,24.20
2023-05-21T11:47:19.147Z,24.20
2023-05-21T11:49:47.137Z,24.30
2023-05-21T11:52:15.015Z,24.40
2023-05-21T11:54:48.552Z,24.40
2023-05-21T11:57:18.749Z,24.50
2023-05-21T11:59:47.467Z,24.60
2023-05-21T12:02:16.933Z,24.60
2023-05-21T12:04:46.060Z,24.60
2023-05-21T12:07:15.281Z,24.60
2023-05-21T12:09:53.203Z,24.20
2023-05-21T12:12:23.104Z,24.10
2023-05-21T12:14:51.812Z,24.00
2023-05-21T12:17:21.722Z,24.00
2023-05-21T12:19:51.901Z,24.10
2023-05-21T12:22:20.373Z,24.00
2023-05-21T12:24:48.828Z,24.00
2023-05-21T12:27:18.297Z,24.00
2023-05-21T12:29:55.189Z,24.00
2023-05-21T12:32:23.063Z,24.10
2023-05-21T12:34:57.079Z,24.20
2023-05-21T12:37:26.750Z,24.10
2023-05-21T12:39:55.678Z,24.20
2023-05-21T12:42:35.962Z,24.20
2023-05-21T12:45:09.933Z,24.40
2023-05-21T12:47:37.644Z,24.40
2023-05-21T12:50:12.407Z,24.50
2023-05-21T12:52:44.513Z,24.40
2023-05-21T12:55:14.378Z,24.50
2023-05-21T12:57:44.021Z,24.10
2023-05-21T13:00:12.156Z,23.70
2023-05-21T13:02:44.869Z,23.80
2023-05-21T13:05:18.835Z,24.00
2023-05-21T13:07:48.151Z,24.10
2023-05-21T13:10:17.091Z,24.20
2023-05-21T13:12:45.381Z,24.40
2023-05-21T13:15:12.917Z,24.20
2023-05-21T13:17:40.693Z,24.30
2023-05-21T13:20:21.520Z,24.40
2023-05-21T13:22:51.833Z,24.40
2023-05-21T13:25:21.757Z,24.40
2023-05-21T13:27:50.856Z,24.50
2023-05-21T13:30:19.224Z,24.40
2023-05-21T13:32:47.578Z,24.40
2023-05-21T13:35:16.762Z,24.40
2023-05-21T13:37:45.415Z,24.20
2023-05-21T13:40:15.263Z,24.40
2023-05-21T13:42:47.965Z,24.30
2023-05-21T13:45:18.552Z,24.30
2023-05-21T13:47:46.867Z,24.00
2023-05-21T13:50:14.703Z,24.10
2023-05-21T13:52:42.209Z,23.80
2023-05-21T13:55:11.719Z,23.90
2023-05-21T13:57:40.645Z,24.20
2023-05-21T14:00:10.533Z,24.40
2023-05-21T14:02:38.102Z,24.70
2023-05-21T14:05:06.197Z,25.00
2023-05-21T14:07:33.600Z,25.40
2023-05-21T14:10:01.513Z,25.40
2023-05-21T14:12:28.854Z,24.90
2023-05-21T14:14:56.594Z,24.90
2023-05-21T14:17:24.167Z,25.80
2023-05-21T14:19:51.974Z,25.70
2023-05-21T14:22:19.532Z,27.40
2023-05-21T14:24:47.345Z,29.00
2023-05-21T14:29:43.870Z,32.80
2023-05-21T14:34:40.429Z,37.90
2023-05-21T14:42:05.046Z,39.00
2023-05-21T14:44:32.770Z,37.70
2023-05-21T14:47:00.179Z,36.20
2023-05-21T14:49:27.933Z,37.80
2023-05-21T14:51:55.387Z,35.70
2023-05-21T14:54:23.260Z,38.70
2023-05-21T14:56:50.602Z,36.00
2023-05-21T14:59:18.555Z,34.30
2023-05-21T15:04:14.234Z,38.10
2023-05-21T15:06:42.145Z,38.30
2023-05-21T15:14:07.355Z,40.70
2023-05-21T15:16:34.671Z,38.80
2023-05-21T15:19:03.360Z,38.10
2023-05-21T15:21:31.156Z,39.90
2023-05-21T15:23:58.690Z,40.00
2023-05-21T15:26:27.080Z,39.30
2023-05-21T15:28:55.080Z,40.50
2023-05-21T15:31:22.410Z,42.30
2023-05-21T15:33:50.029Z,42.70
2023-05-21T15:36:17.618Z,42.60
2023-05-21T15:41:13.303Z,44.60
2023-05-21T15:43:42.247Z,42.20
2023-05-21T15:46:11.192Z,42.10
2023-05-21T15:48:39.185Z,43.40
2023-05-21T15:51:06.567Z,43.60
2023-05-21T15:53:34.388Z,40.80
2023-05-21T15:56:03.266Z,39.10
2023-05-21T15:58:31.354Z,40.40
2023-05-21T16:00:58.910Z,41.60
2023-05-21T16:03:26.611Z,43.90
2023-05-21T16:05:53.995Z,41.90
2023-05-21T16:08:21.741Z,42.90
2023-05-21T16:10:49.300Z,43.00
2023-05-21T16:13:17.103Z,43.20
2023-05-21T16:15:47.177Z,42.80
2023-05-21T16:18:15.074Z,42.40
2023-05-21T16:20:42.430Z,40.00
2023-05-21T16:23:12.111Z,38.40
2023-05-21T16:25:39.579Z,38.70
2023-05-21T16:28:07.362Z,38.30
2023-05-21T16:30:34.828Z,37.90
2023-05-21T16:33:02.451Z,38.70
2023-05-21T16:35:31.825Z,37.60
2023-05-21T16:38:00.020Z,36.60
2023-05-21T16:40:27.450Z,36.30
2023-05-21T16:42:55.147Z,37.10
2023-05-21T16:45:23.349Z,35.90
2023-05-21T16:47:51.573Z,36.70
2023-05-21T16:50:21.871Z,37.80
2023-05-21T16:52:49.574Z,37.00
2023-05-21T16:55:16.881Z,37.00
2023-05-21T16:57:44.585Z,36.50
2023-05-21T17:00:12.364Z,35.60
2023-05-21T17:02:40.463Z,35.60
2023-05-21T17:05:08.185Z,35.00
2023-05-21T17:07:35.855Z,34.80
2023-05-21T17:10:03.676Z,34.30
2023-05-21T17:12:31.334Z,34.40
2023-05-21T17:14:59.038Z,35.20
2023-05-21T17:17:27.017Z,35.90
2023-05-21T17:19:55.044Z,34.20
2023-05-21T17:22:22.739Z,32.10
2023-05-21T17:24:50.363Z,30.40
2023-05-21T17:29:46.010Z,29.10
2023-05-21T17:32:13.743Z,27.30
2023-05-21T17:34:41.099Z,26.40
2023-05-21T17:37:08.782Z,25.20
2023-05-21T17:39:36.324Z,24.60
2023-05-21T17:42:04.512Z,24.10
2023-05-21T17:44:32.198Z,23.90
2023-05-21T17:46:59.927Z,23.60
2023-05-21T17:49:27.499Z,23.30
2023-05-21T17:51:55.544Z,23.10
2023-05-21T17:54:22.964Z,23.00
2023-05-21T17:56:51.017Z,22.70
2023-05-21T17:59:18.349Z,22.60
2023-05-21T18:01:46.475Z,22.30
2023-05-21T18:04:13.844Z,22.20
2023-05-21T18:06:41.510Z,22.20
2023-05-21T18:09:10.565Z,21.90
2023-05-21T18:11:38.344Z,21.70
2023-05-21T18:14:05.878Z,21.50
2023-05-21T18:16:33.525Z,21.30
2023-05-21T18:19:07.228Z,21.20
2023-05-21T18:21:35.429Z,21.10
2023-05-21T18:24:03.783Z,20.90
2023-05-21T18:26:31.775Z,20.80
2023-05-21T18:28:59.402Z,20.70
2023-05-21T18:31:27.367Z,20.50
2023-05-21T18:33:55.034Z,20.40
2023-05-21T18:36:23.862Z,20.20
2023-05-21T18:38:53.274Z,20.10
2023-05-21T18:41:22.393Z,20.00
2023-05-21T18:43:49.686Z,19.80
2023-05-21T18:46:17.446Z,19.80
2023-05-21T18:48:46.100Z,19.60
2023-05-21T18:51:13.848Z,19.50
2023-05-21T18:53:41.086Z,19.40
2023-05-21T18:56:10.267Z,19.30
2023-05-21T18:58:38.404Z,19.20
2023-05-21T19:01:08.592Z,19.10
2023-05-21T19:03:36.057Z,19.00
2023-05-21T19:06:04.473Z,18.90
2023-05-21T19:08:32.357Z,18.80
2023-05-21T19:11:00.016Z,18.80
2023-05-21T19:13:27.477Z,18.70
2023-05-21T19:15:55.266Z,18.70
2023-05-21T19:18:24.096Z,18.60
2023-05-21T19:20:51.708Z,18.50
2023-05-21T19:23:19.239Z,18.40
2023-05-21T19:25:47.178Z,18.40
2023-05-21T19:28:14.497Z,18.30
2023-05-21T19:30:42.080Z,18.30
2023-05-21T19:33:09.325Z,18.20
2023-05-21T19:35:37.794Z,18.10
2023-05-21T19:38:05.717Z,18.10
2023-05-21T19:40:33.719Z,18.00
2023-05-21T19:43:01.308Z,18.00
2023-05-21T19:45:29.211Z,18.00
2023-05-21T19:47:56.964Z,18.00
2023-05-21T19:50:24.823Z,17.90
2023-05-21T19:52:53.515Z,17.90
2023-05-21T19:55:21.244Z,17.90
2023-05-21T19:57:48.924Z,17.80
2023-05-21T20:00:17.261Z,17.80
2023-05-21T20:02:45.933Z,17.70
2023-05-21T20:05:13.912Z,17.80
2023-05-21T20:07:42.521Z,17.70
2023-05-21T20:10:10.239Z,17.70
2023-05-21T20:12:38.347Z,17.70
2023-05-21T20:15:07.088Z,17.60
2023-05-21T20:17:36.009Z,17.60
2023-05-21T20:20:11.198Z,17.60
2023-05-21T20:22:38.723Z,17.60
2023-05-21T20:25:08.686Z,17.50
2023-05-21T20:27:38.672Z,17.60
2023-05-21T20:30:07.753Z,17.50
2023-05-21T20:32:35.095Z,17.40
2023-05-21T20:35:03.779Z,17.30
2023-05-21T20:37:34.837Z,17.30
2023-05-21T20:40:06.739Z,17.20
2023-05-21T20:42:36.795Z,17.20
2023-05-21T20:45:05.546Z,17.10
2023-05-21T20:47:34.043Z,17.10
2023-05-21T20:50:02.958Z,17.00
2023-05-21T20:52:30.602Z,16.90
2023-05-21T20:55:00.465Z,16.90
2023-05-21T20:57:28.703Z,16.80
2023-05-21T20:59:56.700Z,16.80
2023-05-21T21:02:24.071Z,16.70
2023-05-21T21:04:52.082Z,16.70
2023-05-21T21:07:19.827Z,16.70
2023-05-21T21:09:48.755Z,16.60
2023-05-21T21:12:25.811Z,16.60
2023-05-21T21:14:54.878Z,16.60
2023-05-21T21:17:22.501Z,16.60
2023-05-21T21:19:50.980Z,16.60
2023-05-21T21:22:18.675Z,16.60
2023-05-21T21:24:47.062Z,16.50
2023-05-21T21:27:14.511Z,16.60
2023-05-21T21:29:42.340Z,16.60
2023-05-21T21:32:10.217Z,16.60
2023-05-21T21:34:37.857Z,16.60
2023-05-21T21:37:05.337Z,16.60
2023-05-21T21:39:32.974Z,16.60
2023-05-21T21:42:00.511Z,16.50
2023-05-21T21:44:28.258Z,16.50
2023-05-21T21:46:55.647Z,16.40
2023-05-21T21:49:23.384Z,16.40
2023-05-21T21:51:51.351Z,16.30
2023-05-21T21:54:19.024Z,16.30
2023-05-21T21:56:46.411Z,16.20
2023-05-21T21:59:14.093Z,16.20
2023-05-21T22:01:43.010Z,16.10
2023-05-21T22:04:11.449Z,16.10
2023-05-21T22:06:39.152Z,16.10
2023-05-21T22:09:07.508Z,16.00
2023-05-21T22:11:34.946Z,16.00
2023-05-21T22:14:02.732Z,15.90
2023-05-21T22:16:30.369Z,15.80
2023-05-21T22:18:58.847Z,15.80
2023-05-21T22:21:27.258Z,15.80
2023-05-21T22:23:55.748Z,15.70
2023-05-21T22:26:23.332Z,15.70
2023-05-21T22:28:51.497Z,15.70
2023-05-21T22:31:19.004Z,15.60
2023-05-21T22:33:46.993Z,15.60
2023-05-21T22:36:14.341Z,15.60
2023-05-21T22:38:43.504Z,15.50
2023-05-21T22:41:11.492Z,15.40
2023-05-21T22:43:39.203Z,15.40
2023-05-21T22:46:06.562Z,15.30
2023-05-21T22:48:37.436Z,15.30
2023-05-21T22:51:05.481Z,15.30
2023-05-21T22:53:33.601Z,15.20
2023-05-21T22:56:01.406Z,15.20
2023-05-21T22:58:29.162Z,15.20
2023-05-21T23:00:56.600Z,15.10
2023-05-21T23:03:24.372Z,15.10
2023-05-21T23:05:51.694Z,15.00
2023-05-21T23:08:19.890Z,14.90
2023-05-21T23:10:47.231Z,14.90
2023-05-21T23:13:14.896Z,14.80
2023-05-21T23:15:43.813Z,14.80
2023-05-21T23:18:11.870Z,14.70
2023-05-21T23:20:41.265Z,14.70
2023-05-21T23:23:10.570Z,14.60
2023-05-21T23:25:37.954Z,14.60
2023-05-21T23:28:05.853Z,14.50
2023-05-21T23:30:33.258Z,14.50
2023-05-21T23:33:01.272Z,14.50
2023-05-21T23:35:28.716Z,14.40
2023-05-21T23:37:56.489Z,14.40
2023-05-21T23:40:23.948Z,14.30
2023-05-21T23:42:51.486Z,14.30
2023-05-21T23:45:18.793Z,14.20
2023-05-21T23:47:46.576Z,14.10
2023-05-21T23:50:14.065Z,14.10
2023-05-21T23:52:41.714Z,14.00
2023-05-21T23:55:11.561Z,13.90
2023-05-21T23:57:39.087Z,13.90
